createdAt,value
2019-05-26T00:00:14.043Z,70.07
2019-05-26T00:01:14.045Z,69.87
2019-05-26T00:02:14.066Z,69.97
2019-05-26T00:03:14.010Z,69.56
2019-05-26T00:04:13.995Z,69.87
2019-05-26T00:05:13.992Z,69.26
2019-05-26T00:06:13.980Z,69.46
2019-05-26T00:07:29.499Z,69.46
2019-05-26T00:08:15.249Z,69.59
2019-05-26T00:09:13.941Z,69.90
2019-05-26T00:10:13.934Z,70.00
2019-05-26T00:11:13.995Z,70.21
2019-05-26T00:12:16.040Z,69.90
2019-05-26T00:13:13.920Z,70.14
2019-05-26T00:14:13.895Z,70.10
2019-05-26T00:15:13.906Z,70.41
2019-05-26T00:16:13.874Z,69.93
2019-05-26T00:17:13.864Z,70.75
2019-05-26T00:18:13.913Z,70.95
2019-05-26T00:19:13.848Z,70.54
2019-05-26T00:20:13.828Z,70.65
2019-05-26T00:21:13.812Z,70.68
2019-05-26T00:22:13.806Z,71.09
2019-05-26T00:23:13.796Z,71.26
2019-05-26T00:24:13.822Z,71.60
2019-05-26T00:25:13.785Z,71.29
2019-05-26T00:26:13.761Z,71.80
2019-05-26T00:27:13.747Z,72.31
2019-05-26T00:28:13.736Z,71.70
2019-05-26T00:29:13.739Z,72.24
2019-05-26T00:30:13.738Z,72.34
2019-05-26T00:31:13.723Z,72.34
2019-05-26T00:32:13.685Z,72.75
2019-05-26T00:33:13.682Z,72.75
2019-05-26T00:34:13.682Z,72.96
2019-05-26T00:35:13.662Z,72.65
2019-05-26T00:36:13.830Z,72.69
2019-05-26T00:37:13.640Z,73.47
2019-05-26T00:38:13.633Z,73.40
2019-05-26T00:39:13.613Z,74.25
2019-05-26T00:40:13.612Z,74.32
2019-05-26T00:41:13.624Z,74.42
2019-05-26T00:42:13.599Z,74.25
2019-05-26T00:43:13.566Z,74.15
2019-05-26T00:44:13.554Z,74.52
2019-05-26T00:45:20.180Z,74.56
2019-05-26T00:46:13.566Z,74.56
2019-05-26T00:47:13.531Z,74.25
2019-05-26T00:48:13.511Z,74.76
2019-05-26T00:49:13.495Z,74.56
2019-05-26T00:50:13.484Z,74.97
2019-05-26T00:51:13.494Z,75.07
2019-05-26T00:52:13.479Z,74.97
2019-05-26T00:53:13.451Z,75.07
2019-05-26T00:54:13.453Z,75.07
2019-05-26T00:55:13.430Z,75.48
2019-05-26T00:56:13.424Z,74.76
2019-05-26T00:57:13.441Z,75.58
2019-05-26T00:58:13.411Z,74.76
2019-05-26T00:59:13.388Z,75.27
2019-05-26T01:00:13.373Z,75.68
2019-05-26T01:01:13.380Z,76.19
2019-05-26T01:02:13.363Z,75.99
2019-05-26T01:03:13.369Z,75.78
2019-05-26T01:04:13.373Z,76.60
2019-05-26T01:05:13.318Z,76.60
2019-05-26T01:06:13.311Z,76.29
2019-05-26T01:07:13.304Z,76.29
2019-05-26T01:08:13.290Z,76.70
2019-05-26T01:09:13.292Z,76.90
2019-05-26T01:10:13.393Z,76.29
2019-05-26T01:11:13.257Z,76.64
2019-05-26T01:12:13.243Z,76.84
2019-05-26T01:13:13.231Z,76.81
2019-05-26T01:14:13.230Z,76.60
2019-05-26T01:15:13.222Z,76.43
2019-05-26T01:16:13.224Z,76.74
2019-05-26T01:17:13.183Z,76.94
2019-05-26T01:18:13.178Z,77.04
2019-05-26T01:19:13.169Z,77.76
2019-05-26T01:20:13.166Z,77.76
2019-05-26T01:21:13.175Z,77.56
2019-05-26T01:22:13.127Z,78.58
2019-05-26T01:23:13.116Z,77.76
2019-05-26T01:24:13.109Z,78.07
2019-05-26T01:25:13.106Z,78.78
2019-05-26T01:26:13.128Z,78.68
2019-05-26T01:27:13.098Z,78.48
2019-05-26T01:28:13.062Z,78.88
2019-05-26T01:29:13.056Z,78.68
2019-05-26T01:30:13.055Z,78.27
2019-05-26T01:31:13.037Z,78.68
2019-05-26T01:32:13.047Z,78.64
2019-05-26T01:33:13.012Z,78.38
2019-05-26T01:34:12.993Z,78.68
2019-05-26T01:35:12.984Z,78.88
2019-05-26T01:36:12.980Z,78.99
2019-05-26T01:37:12.960Z,78.99
2019-05-26T01:38:23.407Z,78.99
2019-05-26T01:39:13.965Z,79.70
2019-05-26T01:40:12.927Z,78.99
2019-05-26T01:41:12.915Z,79.23
2019-05-26T01:42:12.915Z,79.60
2019-05-26T01:43:12.923Z,79.74
2019-05-26T01:44:12.892Z,79.94
2019-05-26T01:45:12.872Z,79.13
2019-05-26T01:46:12.865Z,79.43
2019-05-26T01:47:12.848Z,79.74
2019-05-26T01:48:12.856Z,79.33
2019-05-26T01:49:12.836Z,79.74
2019-05-26T01:50:12.853Z,79.53
2019-05-26T01:51:12.805Z,79.43
2019-05-26T01:52:12.797Z,79.68
2019-05-26T01:53:12.789Z,79.74
2019-05-26T01:54:12.781Z,79.68
2019-05-26T01:55:12.802Z,79.98
2019-05-26T01:56:12.748Z,79.98
2019-05-26T01:57:12.741Z,80.08
2019-05-26T01:58:12.735Z,80.08
2019-05-26T01:59:12.734Z,80.19
2019-05-26T02:00:12.717Z,80.29
2019-05-26T02:01:12.721Z,79.98
2019-05-26T02:02:12.693Z,80.08
2019-05-26T02:03:12.682Z,80.39
2019-05-26T02:04:12.665Z,80.08
2019-05-26T02:05:12.652Z,80.39
2019-05-26T02:06:12.941Z,80.19
2019-05-26T02:07:12.661Z,80.80
2019-05-26T02:08:12.614Z,80.60
2019-05-26T02:09:12.604Z,80.60
2019-05-26T02:10:12.597Z,80.49
2019-05-26T02:11:12.596Z,80.69
2019-05-26T02:12:12.594Z,80.49
2019-05-26T02:13:12.576Z,80.49
2019-05-26T02:14:14.569Z,80.53
2019-05-26T02:15:12.547Z,80.69
2019-05-26T02:16:12.535Z,80.94
2019-05-26T02:17:12.543Z,81.21
2019-05-26T02:18:12.515Z,81.35
2019-05-26T02:19:12.493Z,81.62
2019-05-26T02:20:12.483Z,81.51
2019-05-26T02:21:14.801Z,81.62
2019-05-26T02:22:12.461Z,81.86
2019-05-26T02:23:12.468Z,82.03
2019-05-26T02:24:12.437Z,82.75
2019-05-26T02:25:12.434Z,82.84
2019-05-26T02:26:12.419Z,82.43
2019-05-26T02:27:12.405Z,82.84
2019-05-26T02:28:12.399Z,82.64
2019-05-26T02:29:12.416Z,82.64
2019-05-26T02:30:12.375Z,82.43
2019-05-26T02:31:12.360Z,82.37
2019-05-26T02:32:12.359Z,82.34
2019-05-26T02:33:12.339Z,82.23
2019-05-26T02:34:12.333Z,82.03
2019-05-26T02:35:12.341Z,82.34
2019-05-26T02:36:12.377Z,82.64
2019-05-26T02:37:12.305Z,82.43
2019-05-26T02:38:12.298Z,82.75
2019-05-26T02:39:12.562Z,82.64
2019-05-26T02:40:12.312Z,82.64
2019-05-26T02:41:12.251Z,83.15
2019-05-26T02:42:12.297Z,83.50
2019-05-26T02:43:12.232Z,83.70
2019-05-26T02:44:12.212Z,83.29
2019-05-26T02:45:12.246Z,83.70
2019-05-26T02:46:12.194Z,84.31
2019-05-26T02:47:12.188Z,84.11
2019-05-26T02:48:12.177Z,83.29
2019-05-26T02:49:12.163Z,83.60
2019-05-26T02:50:12.162Z,83.39
2019-05-26T02:51:12.155Z,83.39
2019-05-26T02:52:12.160Z,83.50
2019-05-26T02:53:12.127Z,83.29
2019-05-26T02:54:12.108Z,83.19
2019-05-26T02:55:12.097Z,83.50
2019-05-26T02:56:12.079Z,84.01
2019-05-26T02:57:12.077Z,84.36
2019-05-26T02:58:12.091Z,84.42
2019-05-26T02:59:12.051Z,83.60
2019-05-26T03:00:12.038Z,83.60
2019-05-26T03:01:12.037Z,83.91
2019-05-26T03:02:12.018Z,84.56
2019-05-26T03:03:12.022Z,83.91
2019-05-26T03:04:12.024Z,84.46
2019-05-26T03:05:11.982Z,84.36
2019-05-26T03:06:11.970Z,84.46
2019-05-26T03:07:11.962Z,84.05
2019-05-26T03:08:11.954Z,84.42
2019-05-26T03:09:22.609Z,84.22
2019-05-26T03:10:13.936Z,84.31
2019-05-26T03:11:11.911Z,84.25
2019-05-26T03:12:11.909Z,84.01
2019-05-26T03:13:11.890Z,84.31
2019-05-26T03:14:11.922Z,84.22
2019-05-26T03:15:11.869Z,83.70
2019-05-26T03:16:11.897Z,83.70
2019-05-26T03:17:11.855Z,84.66
2019-05-26T03:18:11.842Z,83.74
2019-05-26T03:19:11.833Z,84.15
2019-05-26T03:20:11.825Z,84.15
2019-05-26T03:21:11.813Z,84.36
2019-05-26T03:22:11.830Z,84.25
2019-05-26T03:23:11.782Z,84.66
2019-05-26T03:24:11.774Z,85.07
2019-05-26T03:25:11.776Z,84.25
2019-05-26T03:26:11.764Z,83.74
2019-05-26T03:27:11.742Z,83.84
2019-05-26T03:28:11.789Z,83.64
2019-05-26T03:29:11.718Z,84.46
2019-05-26T03:30:11.742Z,84.25
2019-05-26T03:31:11.707Z,84.05
2019-05-26T03:32:11.686Z,84.25
2019-05-26T03:33:11.699Z,83.50
2019-05-26T03:34:11.660Z,83.50
2019-05-26T03:35:11.692Z,82.89
2019-05-26T03:36:11.658Z,83.29
2019-05-26T03:37:11.641Z,83.54
2019-05-26T03:38:11.629Z,83.09
2019-05-26T03:39:11.617Z,83.03
2019-05-26T03:40:11.590Z,83.03
2019-05-26T03:41:11.895Z,83.03
2019-05-26T03:42:11.638Z,83.09
2019-05-26T03:43:11.568Z,82.51
2019-05-26T03:44:11.555Z,81.96
2019-05-26T03:45:11.552Z,82.27
2019-05-26T03:46:11.543Z,82.07
2019-05-26T03:47:16.389Z,82.07
2019-05-26T03:48:12.655Z,81.65
2019-05-26T03:49:11.511Z,81.24
2019-05-26T03:50:11.485Z,81.24
2019-05-26T03:51:11.540Z,81.10
2019-05-26T03:52:11.589Z,81.21
2019-05-26T03:53:11.453Z,80.80
2019-05-26T03:54:11.460Z,80.60
2019-05-26T03:55:11.437Z,80.94
2019-05-26T03:56:11.425Z,80.80
2019-05-26T03:57:11.428Z,80.49
2019-05-26T03:58:11.399Z,80.39
2019-05-26T03:59:11.578Z,80.29
2019-05-26T04:00:11.389Z,80.29
2019-05-26T04:01:11.399Z,79.57
2019-05-26T04:02:11.367Z,80.08
2019-05-26T04:03:11.344Z,80.08
2019-05-26T04:04:11.336Z,79.68
2019-05-26T04:05:11.318Z,79.57
2019-05-26T04:06:11.308Z,79.02
2019-05-26T04:07:12.503Z,79.53
2019-05-26T04:08:11.296Z,79.02
2019-05-26T04:09:11.281Z,79.02
2019-05-26T04:10:11.270Z,78.82
2019-05-26T04:11:11.254Z,77.86
2019-05-26T04:12:11.241Z,78.38
2019-05-26T04:13:11.260Z,77.45
2019-05-26T04:14:11.216Z,77.01
2019-05-26T04:15:11.206Z,76.53
2019-05-26T04:16:11.197Z,76.60
2019-05-26T04:17:11.187Z,76.70
2019-05-26T04:18:11.209Z,76.29
2019-05-26T04:19:11.156Z,76.09
2019-05-26T04:20:11.150Z,76.09
2019-05-26T04:21:11.146Z,75.78
2019-05-26T04:22:11.132Z,76.19
2019-05-26T04:23:11.147Z,75.37
2019-05-26T04:24:11.102Z,75.68
2019-05-26T04:25:11.121Z,74.87
2019-05-26T04:26:11.081Z,74.76
2019-05-26T04:27:11.094Z,75.78
2019-05-26T04:28:11.065Z,74.97
2019-05-26T04:29:11.119Z,75.78
2019-05-26T04:30:11.052Z,75.58
2019-05-26T04:31:11.024Z,75.27
2019-05-26T04:32:11.022Z,75.13
2019-05-26T04:33:11.008Z,75.68
2019-05-26T04:34:11.014Z,75.34
2019-05-26T04:35:11.192Z,75.65
2019-05-26T04:36:10.968Z,75.54
2019-05-26T04:37:10.967Z,74.52
2019-05-26T04:38:10.949Z,74.83
2019-05-26T04:39:10.946Z,74.90
2019-05-26T04:40:25.734Z,75.54
2019-05-26T04:41:11.916Z,75.54
2019-05-26T04:42:10.906Z,75.65
2019-05-26T04:43:14.578Z,75.75
2019-05-26T04:44:10.889Z,75.54
2019-05-26T04:45:10.888Z,75.65
2019-05-26T04:46:18.773Z,75.54
2019-05-26T04:47:10.854Z,75.13
2019-05-26T04:48:10.839Z,75.85
2019-05-26T04:49:10.825Z,76.26
2019-05-26T04:50:10.842Z,76.46
2019-05-26T04:51:10.802Z,75.95
2019-05-26T04:52:10.815Z,76.36
2019-05-26T04:53:10.831Z,76.16
2019-05-26T04:54:10.779Z,75.82
2019-05-26T04:55:10.764Z,76.06
2019-05-26T04:56:10.757Z,75.85
2019-05-26T04:57:10.758Z,76.06
2019-05-26T04:58:10.739Z,75.95
2019-05-26T04:59:10.715Z,76.22
2019-05-26T05:00:10.712Z,75.31
2019-05-26T05:01:10.696Z,74.38
2019-05-26T05:02:10.690Z,74.96
2019-05-26T05:03:10.719Z,75.07
2019-05-26T05:04:10.675Z,74.86
2019-05-26T05:05:10.648Z,74.86
2019-05-26T05:06:10.637Z,74.25
2019-05-26T05:07:10.640Z,74.25
2019-05-26T05:08:10.618Z,74.66
2019-05-26T05:09:10.915Z,74.86
2019-05-26T05:10:10.589Z,74.21
2019-05-26T05:11:10.582Z,73.84
2019-05-26T05:12:10.583Z,74.66
2019-05-26T05:13:10.572Z,74.32
2019-05-26T05:14:10.586Z,74.42
2019-05-26T05:15:10.535Z,74.66
2019-05-26T05:16:10.526Z,74.15
2019-05-26T05:17:10.513Z,74.42
2019-05-26T05:18:10.514Z,74.01
2019-05-26T05:19:10.497Z,74.21
2019-05-26T05:20:10.508Z,73.71
2019-05-26T05:21:10.464Z,73.91
2019-05-26T05:22:10.456Z,74.01
2019-05-26T05:23:10.465Z,74.11
2019-05-26T05:24:10.436Z,73.71
2019-05-26T05:25:14.996Z,73.57
2019-05-26T05:26:11.501Z,73.36
2019-05-26T05:27:10.402Z,73.57
2019-05-26T05:28:10.397Z,73.36
2019-05-26T05:29:10.403Z,72.62
2019-05-26T05:30:10.370Z,72.52
2019-05-26T05:31:10.386Z,72.62
2019-05-26T05:32:10.348Z,71.87
2019-05-26T05:33:10.332Z,72.08
2019-05-26T05:34:10.326Z,72.08
2019-05-26T05:35:10.318Z,71.33
2019-05-26T05:36:10.308Z,71.43
2019-05-26T05:37:10.388Z,70.72
2019-05-26T05:38:10.281Z,71.12
2019-05-26T05:39:10.263Z,70.41
2019-05-26T05:40:10.268Z,70.41
2019-05-26T05:41:10.244Z,70.07
2019-05-26T05:42:10.279Z,70.18
2019-05-26T05:43:10.222Z,69.77
2019-05-26T05:44:10.217Z,70.38
2019-05-26T05:45:10.218Z,69.97
2019-05-26T05:46:10.200Z,69.87
2019-05-26T05:47:10.180Z,69.94
2019-05-26T05:48:10.209Z,69.02
2019-05-26T05:49:10.167Z,69.50
2019-05-26T05:50:10.154Z,68.52
2019-05-26T05:51:10.141Z,68.38
2019-05-26T05:52:10.132Z,70.01
2019-05-26T05:53:10.118Z,69.33
2019-05-26T05:54:10.117Z,68.28
2019-05-26T05:55:10.110Z,68.15
2019-05-26T05:56:10.092Z,68.12
2019-05-26T05:57:10.073Z,66.90
2019-05-26T05:58:10.082Z,66.49
2019-05-26T05:59:10.148Z,65.58
2019-05-26T06:00:10.037Z,66.29
2019-05-26T06:01:10.018Z,66.39
2019-05-26T06:02:10.018Z,66.60
2019-05-26T06:03:10.073Z,66.36
2019-05-26T06:04:09.992Z,65.75
2019-05-26T06:05:09.993Z,66.16
2019-05-26T06:06:09.983Z,66.26
2019-05-26T06:07:09.950Z,66.53
2019-05-26T06:08:09.940Z,65.52
2019-05-26T06:09:09.931Z,64.07
2019-05-26T06:10:09.932Z,64.37
2019-05-26T06:11:16.671Z,64.17
2019-05-26T06:12:10.903Z,64.37
2019-05-26T06:13:09.889Z,63.73
2019-05-26T06:14:09.872Z,63.63
2019-05-26T06:15:09.860Z,63.30
2019-05-26T06:16:09.887Z,63.32
2019-05-26T06:17:10.600Z,62.79
2019-05-26T06:18:09.830Z,62.82
2019-05-26T06:19:09.830Z,63.35
2019-05-26T06:20:09.809Z,63.93
2019-05-26T06:21:09.815Z,63.23
2019-05-26T06:22:09.815Z,62.59
2019-05-26T06:23:09.773Z,62.59
2019-05-26T06:24:09.764Z,62.62
2019-05-26T06:25:09.769Z,62.92
2019-05-26T06:26:09.748Z,62.79
2019-05-26T06:27:09.750Z,62.15
2019-05-26T06:28:09.715Z,60.74
2019-05-26T06:29:09.716Z,61.32
2019-05-26T06:30:09.715Z,60.00
2019-05-26T06:31:09.698Z,61.41
2019-05-26T06:32:10.001Z,60.41
2019-05-26T06:33:09.682Z,60.00
2019-05-26T06:34:09.664Z,59.67
2019-05-26T06:35:09.646Z,58.50
2019-05-26T06:36:09.631Z,57.39
2019-05-26T06:37:09.613Z,57.46
2019-05-26T06:38:11.372Z,57.14
2019-05-26T06:39:09.595Z,56.20
2019-05-26T06:40:09.584Z,55.90
2019-05-26T06:41:09.578Z,56.20
2019-05-26T06:42:12.788Z,56.93
2019-05-26T06:43:09.568Z,56.20
2019-05-26T06:44:09.551Z,56.37
2019-05-26T06:45:09.540Z,54.53
2019-05-26T06:46:09.534Z,54.94
2019-05-26T06:47:09.534Z,53.30
2019-05-26T06:48:09.491Z,52.97
2019-05-26T06:49:09.482Z,53.60
2019-05-26T06:50:09.471Z,53.17
2019-05-26T06:51:09.477Z,49.95
2019-05-26T06:52:09.457Z,48.98
2019-05-26T06:53:09.443Z,46.93
2019-05-26T06:54:09.428Z,47.11
2019-05-26T06:55:09.420Z,46.04
2019-05-26T06:56:09.437Z,43.87
2019-05-26T06:57:09.397Z,41.11
2019-05-26T06:58:09.402Z,40.28
2019-05-26T06:59:09.369Z,40.40
2019-05-26T07:00:09.362Z,40.98
2019-05-26T07:01:09.364Z,40.72
2019-05-26T07:02:09.336Z,41.89
2019-05-26T07:03:09.333Z,43.63
2019-05-26T07:04:09.317Z,44.62
2019-05-26T07:05:09.315Z,42.57
2019-05-26T07:06:09.295Z,43.21
2019-05-26T07:07:09.515Z,44.35
2019-05-26T07:08:09.287Z,44.46
2019-05-26T07:09:09.261Z,45.06
2019-05-26T07:10:09.261Z,44.88
2019-05-26T07:11:09.243Z,44.86
2019-05-26T07:12:09.246Z,44.58
2019-05-26T07:13:09.221Z,44.96
2019-05-26T07:14:09.210Z,43.62
2019-05-26T07:15:09.209Z,42.68
2019-05-26T07:16:09.255Z,40.94
2019-05-26T07:17:09.178Z,41.22
2019-05-26T07:18:09.236Z,39.68
2019-05-26T07:19:09.155Z,39.56
2019-05-26T07:20:09.297Z,39.16
2019-05-26T07:21:09.133Z,38.43
2019-05-26T07:22:09.116Z,38.03
2019-05-26T07:23:09.474Z,38.45
2019-05-26T07:24:09.092Z,38.53
2019-05-26T07:25:09.092Z,37.70
2019-05-26T07:26:09.121Z,36.68
2019-05-26T07:27:09.074Z,37.20
2019-05-26T07:28:09.044Z,37.51
2019-05-26T07:29:09.041Z,37.68
2019-05-26T07:30:09.037Z,36.27
2019-05-26T07:31:09.027Z,37.51
2019-05-26T07:32:09.046Z,38.33
2019-05-26T07:33:08.993Z,38.15
2019-05-26T07:34:08.989Z,39.26
2019-05-26T07:35:08.978Z,38.07
2019-05-26T07:36:08.962Z,37.85
2019-05-26T07:37:08.972Z,38.67
2019-05-26T07:38:09.049Z,39.46
2019-05-26T07:39:08.996Z,37.95
2019-05-26T07:40:08.926Z,38.37
2019-05-26T07:41:08.917Z,38.98
2019-05-26T07:42:11.042Z,40.72
2019-05-26T07:43:08.890Z,40.40
2019-05-26T07:44:08.869Z,40.32
2019-05-26T07:45:08.898Z,40.34
2019-05-26T07:46:08.862Z,40.42
2019-05-26T07:47:08.856Z,40.10
2019-05-26T07:48:08.830Z,39.88
2019-05-26T07:49:08.815Z,39.16
2019-05-26T07:50:08.805Z,38.86
2019-05-26T07:51:08.802Z,38.67
2019-05-26T07:52:08.795Z,37.34
2019-05-26T07:53:08.811Z,37.43
2019-05-26T07:54:24.264Z,36.60
2019-05-26T07:55:09.781Z,36.07
2019-05-26T07:56:08.738Z,35.38
2019-05-26T07:57:08.739Z,37.41
2019-05-26T07:58:08.731Z,37.95
2019-05-26T07:59:08.721Z,37.75
2019-05-26T08:00:08.699Z,37.51
2019-05-26T08:01:09.016Z,36.74
2019-05-26T08:02:08.703Z,38.01
2019-05-26T08:03:08.678Z,37.49
2019-05-26T08:04:08.663Z,36.07
2019-05-26T08:05:08.640Z,36.49
2019-05-26T08:06:08.632Z,38.05
2019-05-26T08:07:08.619Z,38.67
2019-05-26T08:08:13.044Z,38.90
2019-05-26T08:09:08.598Z,39.90
2019-05-26T08:10:08.605Z,40.20
2019-05-26T08:11:08.593Z,40.53
2019-05-26T08:12:23.098Z,40.10
2019-05-26T08:13:09.635Z,40.36
2019-05-26T08:14:08.581Z,39.18
2019-05-26T08:15:08.553Z,39.66
2019-05-26T08:16:08.557Z,38.89
2019-05-26T08:17:08.514Z,39.50
2019-05-26T08:18:08.505Z,41.66
2019-05-26T08:19:08.583Z,41.53
2019-05-26T08:20:08.471Z,42.38
2019-05-26T08:21:08.475Z,42.60
2019-05-26T08:22:08.457Z,42.57
2019-05-26T08:23:08.763Z,40.62
2019-05-26T08:24:08.448Z,38.25
2019-05-26T08:25:08.452Z,38.01
2019-05-26T08:26:08.474Z,36.70
2019-05-26T08:27:08.406Z,36.57
2019-05-26T08:28:08.410Z,36.15
2019-05-26T08:29:08.382Z,35.66
2019-05-26T08:30:08.422Z,35.75
2019-05-26T08:31:08.383Z,35.64
2019-05-26T08:32:08.357Z,34.13
2019-05-26T08:33:08.339Z,34.43
2019-05-26T08:34:08.332Z,33.21
2019-05-26T08:35:08.340Z,33.80
2019-05-26T08:36:08.328Z,33.21
2019-05-26T08:37:08.297Z,33.90
2019-05-26T08:38:08.278Z,33.49
2019-05-26T08:39:08.278Z,32.67
2019-05-26T08:40:08.258Z,31.76
2019-05-26T08:41:08.260Z,31.77
2019-05-26T08:42:08.240Z,33.73
2019-05-26T08:43:08.231Z,34.03
2019-05-26T08:44:08.221Z,33.11
2019-05-26T08:45:08.212Z,33.39
2019-05-26T08:46:09.042Z,33.22
2019-05-26T08:47:08.188Z,34.73
2019-05-26T08:48:08.194Z,33.40
2019-05-26T08:49:08.206Z,33.52
2019-05-26T08:50:08.151Z,34.74
2019-05-26T08:51:08.141Z,34.03
2019-05-26T08:52:08.220Z,33.82
2019-05-26T08:53:08.129Z,33.17
2019-05-26T08:54:08.113Z,31.23
2019-05-26T08:55:08.122Z,32.04
2019-05-26T08:56:08.081Z,33.61
2019-05-26T08:57:08.111Z,33.80
2019-05-26T08:58:08.066Z,32.81
2019-05-26T08:59:08.072Z,33.82
2019-05-26T09:00:08.043Z,33.50
2019-05-26T09:01:08.065Z,33.42
2019-05-26T09:02:08.050Z,34.34
2019-05-26T09:03:08.021Z,33.80
2019-05-26T09:04:08.002Z,31.05
2019-05-26T09:05:07.993Z,31.32
2019-05-26T09:06:07.983Z,30.92
2019-05-26T09:07:07.974Z,30.00
2019-05-26T09:08:08.443Z,30.30
2019-05-26T09:09:07.936Z,30.13
2019-05-26T09:10:07.937Z,31.05
2019-05-26T09:11:07.918Z,33.61
2019-05-26T09:12:07.912Z,32.06
2019-05-26T09:13:07.955Z,32.60
2019-05-26T09:14:07.881Z,35.06
2019-05-26T09:15:07.878Z,36.62
2019-05-26T09:16:07.884Z,36.49
2019-05-26T09:17:07.867Z,33.21
2019-05-26T09:18:07.846Z,30.94
2019-05-26T09:19:07.867Z,31.07
2019-05-26T09:20:10.910Z,33.73
2019-05-26T09:21:07.839Z,33.36
2019-05-26T09:22:07.811Z,35.21
2019-05-26T09:23:07.831Z,35.63
2019-05-26T09:24:07.777Z,33.54
2019-05-26T09:25:07.867Z,30.63
2019-05-26T09:26:07.779Z,29.16
2019-05-26T09:27:07.768Z,27.81
2019-05-26T09:28:07.736Z,28.97
2019-05-26T09:29:07.731Z,30.21
2019-05-26T09:30:07.730Z,30.48
2019-05-26T09:31:07.699Z,28.86
2019-05-26T09:32:07.723Z,28.24
2019-05-26T09:33:07.682Z,30.44
2019-05-26T09:34:07.780Z,30.21
2019-05-26T09:35:07.658Z,28.80
2019-05-26T09:36:07.638Z,28.51
2019-05-26T09:37:07.648Z,27.48
2019-05-26T09:38:07.663Z,27.09
2019-05-26T09:39:07.621Z,28.61
2019-05-26T09:40:07.644Z,30.00
2019-05-26T09:41:07.593Z,28.69
2019-05-26T09:42:07.576Z,28.27
2019-05-26T09:43:15.796Z,28.00
2019-05-26T09:44:08.557Z,26.98
2019-05-26T09:45:07.549Z,25.55
2019-05-26T09:46:07.534Z,25.54
2019-05-26T09:47:07.584Z,25.13
2019-05-26T09:48:07.511Z,26.03
2019-05-26T09:49:07.532Z,25.56
2019-05-26T09:50:07.513Z,27.48
2019-05-26T09:51:07.535Z,28.11
2019-05-26T09:52:07.514Z,29.75
2019-05-26T09:53:07.459Z,30.27
2019-05-26T09:54:07.443Z,31.10
2019-05-26T09:55:07.482Z,31.54
2019-05-26T09:56:07.451Z,32.15
2019-05-26T09:57:07.422Z,32.30
2019-05-26T09:58:07.411Z,31.42
2019-05-26T09:59:07.392Z,32.05
2019-05-26T10:00:07.425Z,33.27
2019-05-26T10:01:07.389Z,33.55
2019-05-26T10:02:07.373Z,31.81
2019-05-26T10:03:07.364Z,31.20
2019-05-26T10:04:07.346Z,30.05
2019-05-26T10:05:07.331Z,28.80
2019-05-26T10:06:07.350Z,28.61
2019-05-26T10:07:10.749Z,27.48
2019-05-26T10:08:08.298Z,26.85
2019-05-26T10:09:07.292Z,25.35
2019-05-26T10:10:07.276Z,26.12
2019-05-26T10:11:07.263Z,25.17
2019-05-26T10:12:07.261Z,28.03
2019-05-26T10:13:07.281Z,31.01
2019-05-26T10:14:07.244Z,31.74
2019-05-26T10:15:07.221Z,30.50
2019-05-26T10:16:07.225Z,29.66
2019-05-26T10:17:07.197Z,30.46
2019-05-26T10:18:07.192Z,30.54
2019-05-26T10:19:07.201Z,31.39
2019-05-26T10:20:07.176Z,30.05
2019-05-26T10:21:07.175Z,30.32
2019-05-26T10:22:07.147Z,28.74
2019-05-26T10:23:07.162Z,29.75
2019-05-26T10:24:07.146Z,30.46
2019-05-26T10:25:07.121Z,30.90
2019-05-26T10:26:07.119Z,32.84
2019-05-26T10:27:07.091Z,32.94
2019-05-26T10:28:07.094Z,32.43
2019-05-26T10:29:07.236Z,31.41
2019-05-26T10:30:07.071Z,32.96
2019-05-26T10:31:07.048Z,33.48
2019-05-26T10:32:07.049Z,33.18
2019-05-26T10:33:07.067Z,33.60
2019-05-26T10:34:07.063Z,34.40
2019-05-26T10:35:07.030Z,35.92
2019-05-26T10:36:07.009Z,36.04
2019-05-26T10:37:06.987Z,35.54
2019-05-26T10:38:06.984Z,35.92
2019-05-26T10:39:06.995Z,35.94
2019-05-26T10:40:06.961Z,34.10
2019-05-26T10:41:06.949Z,34.27
2019-05-26T10:42:06.934Z,33.03
2019-05-26T10:43:06.927Z,33.14
2019-05-26T10:44:06.924Z,33.27
2019-05-26T10:45:06.908Z,33.85
2019-05-26T10:46:06.903Z,32.45
2019-05-26T10:47:06.886Z,30.80
2019-05-26T10:48:06.865Z,31.38
2019-05-26T10:49:06.862Z,31.72
2019-05-26T10:50:06.869Z,32.93
2019-05-26T10:51:07.093Z,31.60
2019-05-26T10:52:06.852Z,30.97
2019-05-26T10:53:06.821Z,31.29
2019-05-26T10:54:06.841Z,32.20
2019-05-26T10:55:06.874Z,31.20
2019-05-26T10:56:06.802Z,30.97
2019-05-26T10:57:06.812Z,30.77
2019-05-26T10:58:06.761Z,30.58
2019-05-26T10:59:06.745Z,30.57
2019-05-26T11:00:06.733Z,30.16
2019-05-26T11:01:06.748Z,30.54
2019-05-26T11:02:06.724Z,29.46
2019-05-26T11:03:06.790Z,29.71
2019-05-26T11:04:06.698Z,28.11
2019-05-26T11:05:06.718Z,27.79
2019-05-26T11:06:06.675Z,28.37
2019-05-26T11:07:06.675Z,27.57
2019-05-26T11:08:06.654Z,28.17
2019-05-26T11:09:06.659Z,28.69
2019-05-26T11:10:06.635Z,29.07
2019-05-26T11:11:06.630Z,28.12
2019-05-26T11:12:06.607Z,29.75
2019-05-26T11:13:06.606Z,30.26
2019-05-26T11:14:06.653Z,29.77
2019-05-26T11:15:06.594Z,31.07
2019-05-26T11:16:06.588Z,30.24
2019-05-26T11:17:06.552Z,29.10
2019-05-26T11:18:06.549Z,28.10
2019-05-26T11:19:06.550Z,28.02
2019-05-26T11:20:06.560Z,28.51
2019-05-26T11:21:06.511Z,28.44
2019-05-26T11:22:06.534Z,30.37
2019-05-26T11:23:06.495Z,31.29
2019-05-26T11:24:06.501Z,30.49
2019-05-26T11:25:06.488Z,30.08
2019-05-26T11:26:06.485Z,29.11
2019-05-26T11:27:10.670Z,27.89
2019-05-26T11:28:07.446Z,28.42
2019-05-26T11:29:06.429Z,29.32
2019-05-26T11:30:06.421Z,27.30
2019-05-26T11:31:06.442Z,26.68
2019-05-26T11:32:06.415Z,27.23
2019-05-26T11:33:06.390Z,30.46
2019-05-26T11:34:06.376Z,30.52
2019-05-26T11:35:06.375Z,32.82
2019-05-26T11:36:06.364Z,32.86
2019-05-26T11:37:06.366Z,33.75
2019-05-26T11:38:06.381Z,33.75
2019-05-26T11:39:06.317Z,32.42
2019-05-26T11:40:06.307Z,31.04
2019-05-26T11:41:06.330Z,29.93
2019-05-26T11:42:13.362Z,28.94
2019-05-26T11:43:16.423Z,28.58
2019-05-26T11:44:17.528Z,26.88
2019-05-26T11:45:07.253Z,27.16
2019-05-26T11:46:06.256Z,27.48
2019-05-26T11:47:06.279Z,27.39
2019-05-26T11:48:06.239Z,26.99
2019-05-26T11:49:06.208Z,28.11
2019-05-26T11:50:06.202Z,27.82
2019-05-26T11:51:06.192Z,27.67
2019-05-26T11:52:06.323Z,25.74
2019-05-26T11:53:06.224Z,25.04
2019-05-26T11:54:06.179Z,25.74
2019-05-26T11:55:06.151Z,24.92
2019-05-26T11:56:06.143Z,24.10
2019-05-26T11:57:06.141Z,23.50
2019-05-26T11:58:06.123Z,23.91
2019-05-26T11:59:06.127Z,24.22
2019-05-26T12:00:06.121Z,24.54
2019-05-26T12:01:06.098Z,25.16
2019-05-26T12:02:06.083Z,25.85
2019-05-26T12:03:06.088Z,27.37
2019-05-26T12:04:06.055Z,27.27
2019-05-26T12:05:06.060Z,27.51
2019-05-26T12:06:06.055Z,28.27
2019-05-26T12:07:06.054Z,28.59
2019-05-26T12:08:06.068Z,29.33
2019-05-26T12:09:06.016Z,29.66
2019-05-26T12:10:06.034Z,30.76
2019-05-26T12:11:05.987Z,30.27
2019-05-26T12:12:06.008Z,31.56
2019-05-26T12:13:05.960Z,31.07
2019-05-26T12:14:06.010Z,30.27
2019-05-26T12:15:05.943Z,29.86
2019-05-26T12:16:05.945Z,30.16
2019-05-26T12:17:20.878Z,30.11
2019-05-26T12:18:05.933Z,28.30
2019-05-26T12:19:05.931Z,28.00
2019-05-26T12:20:05.959Z,27.69
2019-05-26T12:21:05.884Z,27.50
2019-05-26T12:22:05.880Z,27.48
2019-05-26T12:23:05.872Z,27.00
2019-05-26T12:24:05.853Z,28.40
2019-05-26T12:25:05.844Z,29.02
2019-05-26T12:26:05.830Z,30.24
2019-05-26T12:27:05.828Z,30.26
2019-05-26T12:28:05.827Z,30.57
2019-05-26T12:29:05.834Z,31.36
2019-05-26T12:30:05.808Z,29.99
2019-05-26T12:31:05.802Z,30.49
2019-05-26T12:32:05.765Z,30.39
2019-05-26T12:33:05.756Z,29.90
2019-05-26T12:34:05.784Z,29.88
2019-05-26T12:35:05.757Z,30.26
2019-05-26T12:36:05.744Z,29.55
2019-05-26T12:37:05.730Z,29.57
2019-05-26T12:38:05.754Z,30.08
2019-05-26T12:39:05.707Z,29.99
2019-05-26T12:40:05.689Z,30.80
2019-05-26T12:41:05.796Z,30.99
2019-05-26T12:42:05.664Z,30.71
2019-05-26T12:43:05.651Z,31.51
2019-05-26T12:44:05.639Z,31.52
2019-05-26T12:45:05.630Z,32.45
2019-05-26T12:46:05.626Z,33.45
2019-05-26T12:47:05.650Z,33.37
2019-05-26T12:48:05.624Z,33.29
2019-05-26T12:49:05.587Z,34.11
2019-05-26T12:50:05.572Z,34.31
2019-05-26T12:51:05.568Z,34.53
2019-05-26T12:52:05.566Z,35.13